createdAt,value
2018-12-30T00:03:20.298Z,9.87
2018-12-30T00:08:27.374Z,9.30
2018-12-30T00:13:33.905Z,10.47
2018-12-30T00:18:39.125Z,4.87
2018-12-30T00:23:44.297Z,6.27
2018-12-30T00:28:49.091Z,2.53
2018-12-30T00:33:55.511Z,8.63
2018-12-30T00:39:01.506Z,3.03
2018-12-30T00:44:06.843Z,12.90
2018-12-30T00:49:11.889Z,5.87
2018-12-30T00:54:17.888Z,6.03
2018-12-30T00:59:23.990Z,6.37
2018-12-30T01:04:30.136Z,6.27
2018-12-30T01:09:36.362Z,8.60
2018-12-30T01:14:41.809Z,2.80
2018-12-30T01:19:47.826Z,7.10
2018-12-30T01:24:52.951Z,5.57
2018-12-30T01:29:57.805Z,5.43
2018-12-30T01:35:04.153Z,6.80
2018-12-30T01:40:10.508Z,4.57
2018-12-30T01:45:15.709Z,8.30
2018-12-30T01:50:20.829Z,5.50
2018-12-30T01:55:26.019Z,7.60
2018-12-30T02:00:30.859Z,5.80
2018-12-30T02:05:36.958Z,5.30
2018-12-30T02:10:43.045Z,3.40
2018-12-30T02:15:48.974Z,6.63
2018-12-30T02:20:55.132Z,8.07
2018-12-30T02:26:00.110Z,9.47
2018-12-30T02:31:05.013Z,7.73
2018-12-30T02:36:10.674Z,2.90
2018-12-30T02:41:16.714Z,6.00
2018-12-30T02:46:23.025Z,6.93
2018-12-30T02:51:29.474Z,9.87
2018-12-30T02:56:35.285Z,9.17
2018-12-30T03:01:41.034Z,9.77
2018-12-30T03:06:45.989Z,11.33
2018-12-30T03:11:50.769Z,10.00
2018-12-30T03:16:56.304Z,10.27
2018-12-30T03:22:02.728Z,10.87
2018-12-30T03:27:07.483Z,10.40
2018-12-30T03:32:12.115Z,9.40
2018-12-30T03:37:17.033Z,11.23
2018-12-30T03:42:21.870Z,9.60
2018-12-30T03:47:26.696Z,10.70
2018-12-30T03:52:31.681Z,11.23
2018-12-30T03:57:36.869Z,9.57
2018-12-30T04:02:41.937Z,9.23
2018-12-30T04:07:47.019Z,9.77
2018-12-30T04:12:51.864Z,8.33
2018-12-30T04:17:56.739Z,5.97
2018-12-30T04:23:01.441Z,8.57
2018-12-30T04:28:06.337Z,9.27
2018-12-30T04:33:11.005Z,8.10
2018-12-30T04:38:16.079Z,6.37
2018-12-30T04:43:21.303Z,7.37
2018-12-30T04:48:26.492Z,7.93
2018-12-30T04:53:32.538Z,6.10
2018-12-30T04:58:37.626Z,9.00
2018-12-30T05:03:42.305Z,6.43
2018-12-30T05:08:47.069Z,4.03
2018-12-30T05:13:51.890Z,6.20
2018-12-30T05:18:56.674Z,9.53
2018-12-30T05:24:01.724Z,6.90
2018-12-30T05:29:06.487Z,8.53
2018-12-30T05:34:11.630Z,9.27
2018-12-30T05:39:16.458Z,10.00
2018-12-30T05:44:21.326Z,8.17
2018-12-30T05:49:26.239Z,9.07
2018-12-30T05:54:31.082Z,8.00
2018-12-30T05:59:37.379Z,7.07
2018-12-30T06:04:42.094Z,8.87
2018-12-30T06:09:47.003Z,8.10
2018-12-30T06:14:53.172Z,8.00
2018-12-30T06:19:58.007Z,7.10
2018-12-30T06:25:02.549Z,9.17
2018-12-30T06:30:07.537Z,7.43
2018-12-30T06:35:12.415Z,7.43
2018-12-30T06:40:17.511Z,7.20
2018-12-30T06:45:22.364Z,8.43
2018-12-30T06:50:27.404Z,7.97
2018-12-30T06:55:32.292Z,8.00
2018-12-30T07:00:37.024Z,5.30
2018-12-30T07:05:42.130Z,7.43
2018-12-30T07:10:46.931Z,6.40
2018-12-30T07:15:51.969Z,6.20
2018-12-30T07:20:57.002Z,6.03
2018-12-30T07:26:02.313Z,4.63
2018-12-30T07:31:07.356Z,6.73
2018-12-30T07:36:12.339Z,6.97
2018-12-30T07:41:17.177Z,6.37
2018-12-30T07:46:21.865Z,5.53
2018-12-30T07:51:27.124Z,6.67
2018-12-30T07:56:31.925Z,6.87
2018-12-30T08:01:36.931Z,6.90
2018-12-30T08:06:41.941Z,6.47
2018-12-30T08:11:48.383Z,7.23
2018-12-30T08:16:53.130Z,7.40
2018-12-30T08:21:57.884Z,5.83
2018-12-30T08:27:02.840Z,5.77
2018-12-30T08:32:07.704Z,6.43
2018-12-30T08:37:12.647Z,6.83
2018-12-30T08:42:17.453Z,7.43
2018-12-30T08:47:22.225Z,7.10
2018-12-30T08:52:27.309Z,7.23
2018-12-30T08:57:32.319Z,6.27
2018-12-30T09:02:37.453Z,5.50
2018-12-30T09:07:42.066Z,6.10
2018-12-30T09:12:47.145Z,5.40
2018-12-30T09:17:52.494Z,5.23
2018-12-30T09:22:57.331Z,4.53
2018-12-30T09:28:02.764Z,4.33
2018-12-30T09:33:07.636Z,5.17
2018-12-30T09:38:12.653Z,5.10
2018-12-30T09:43:17.603Z,4.63
2018-12-30T09:48:22.433Z,5.80
2018-12-30T09:53:27.137Z,4.03
2018-12-30T09:58:32.116Z,4.87
2018-12-30T10:03:37.215Z,4.47
2018-12-30T10:08:42.245Z,4.13
2018-12-30T10:13:46.995Z,4.20
2018-12-30T10:18:51.887Z,4.00
2018-12-30T10:23:57.765Z,3.80
2018-12-30T10:29:02.693Z,4.20
2018-12-30T10:34:07.552Z,3.60
2018-12-30T10:39:12.227Z,4.93
2018-12-30T10:44:17.149Z,5.97
2018-12-30T10:49:22.529Z,5.53
2018-12-30T10:54:28.228Z,4.07
2018-12-30T10:59:32.993Z,2.80
2018-12-30T11:04:38.063Z,3.50
2018-12-30T11:09:42.769Z,3.83
2018-12-30T11:14:47.515Z,3.13
2018-12-30T11:19:52.758Z,3.60
2018-12-30T11:24:57.701Z,3.70
2018-12-30T11:30:03.256Z,3.73
2018-12-30T11:35:08.534Z,3.90
2018-12-30T11:40:13.606Z,3.77
2018-12-30T11:45:18.478Z,4.07
2018-12-30T11:50:23.305Z,3.50
2018-12-30T11:55:28.196Z,4.13
2018-12-30T12:00:33.039Z,4.13
2018-12-30T12:05:37.870Z,2.10
2018-12-30T12:10:43.025Z,3.27
2018-12-30T12:15:47.875Z,1.93
2018-12-30T12:20:53.202Z,4.30
2018-12-30T12:25:58.437Z,3.90
2018-12-30T12:31:03.547Z,3.43
2018-12-30T12:36:08.652Z,4.07
2018-12-30T12:41:13.725Z,4.73
2018-12-30T12:46:18.880Z,3.43
2018-12-30T12:51:23.665Z,2.57
2018-12-30T12:56:28.585Z,5.43
2018-12-30T13:01:33.596Z,4.10
2018-12-30T13:06:38.412Z,5.83
2018-12-30T13:11:43.407Z,7.80
2018-12-30T13:16:48.378Z,7.17
2018-12-30T13:21:53.423Z,5.20
2018-12-30T13:26:58.398Z,6.60
2018-12-30T13:32:03.168Z,6.37
2018-12-30T13:37:08.557Z,4.97
2018-12-30T13:42:13.473Z,5.20
2018-12-30T13:47:18.253Z,6.47
2018-12-30T13:52:23.373Z,7.87
2018-12-30T13:57:28.235Z,7.47
2018-12-30T14:02:33.165Z,7.90
2018-12-30T14:07:38.109Z,7.10
2018-12-30T14:12:44.229Z,8.53
2018-12-30T14:17:48.988Z,5.80
2018-12-30T14:22:55.121Z,6.63
2018-12-30T14:27:59.969Z,7.97
2018-12-30T14:33:04.814Z,7.07
2018-12-30T14:38:09.721Z,6.93
2018-12-30T14:43:14.920Z,7.00
2018-12-30T14:48:19.700Z,8.03
2018-12-30T14:53:24.568Z,7.33
2018-12-30T14:58:29.365Z,8.37
2018-12-30T15:03:34.323Z,9.03
2018-12-30T15:08:39.075Z,9.50
2018-12-30T15:13:43.886Z,7.07
2018-12-30T15:18:49.478Z,7.13
2018-12-30T15:23:54.520Z,8.97
2018-12-30T15:28:59.484Z,9.60
2018-12-30T15:34:04.308Z,7.20
2018-12-30T15:39:09.369Z,8.67
2018-12-30T15:44:14.407Z,7.27
2018-12-30T15:49:19.338Z,7.00
2018-12-30T15:54:24.145Z,6.80
2018-12-30T15:59:28.973Z,6.73
2018-12-30T16:04:33.704Z,6.57
2018-12-30T16:09:39.033Z,6.67
2018-12-30T16:14:44.577Z,6.57
2018-12-30T16:19:49.924Z,7.23
2018-12-30T16:24:54.800Z,8.10
2018-12-30T16:29:59.633Z,7.93
2018-12-30T16:35:04.392Z,7.37
2018-12-30T16:40:09.477Z,9.20
2018-12-30T16:45:14.963Z,9.80
2018-12-30T16:50:21.293Z,10.27
2018-12-30T16:55:26.914Z,9.23
2018-12-30T17:00:31.805Z,9.67
2018-12-30T17:05:36.849Z,9.33
2018-12-30T17:10:41.683Z,8.80
2018-12-30T17:15:46.351Z,8.07
2018-12-30T17:20:51.135Z,10.17
2018-12-30T17:25:56.238Z,9.60
2018-12-30T17:31:02.153Z,5.73
2018-12-30T17:36:07.141Z,9.97
2018-12-30T17:41:11.950Z,8.60
2018-12-30T17:46:18.694Z,7.63
2018-12-30T17:51:23.948Z,6.73
2018-12-30T17:56:28.819Z,7.63
2018-12-30T18:01:33.858Z,8.43
2018-12-30T18:06:38.948Z,9.77
2018-12-30T18:11:43.866Z,7.90
2018-12-30T18:16:48.758Z,9.83
2018-12-30T18:21:53.617Z,8.03
2018-12-30T18:26:58.767Z,8.50
2018-12-30T18:32:03.538Z,8.33
2018-12-30T18:37:08.387Z,8.20
2018-12-30T18:42:14.626Z,8.63
2018-12-30T18:47:19.649Z,8.53
2018-12-30T18:52:24.739Z,8.17
2018-12-30T18:57:29.563Z,10.03
2018-12-30T19:02:34.362Z,9.53
2018-12-30T19:07:39.193Z,7.50
2018-12-30T19:12:43.937Z,8.40
2018-12-30T19:17:48.649Z,8.70
2018-12-30T19:22:53.430Z,9.77
2018-12-30T19:27:58.363Z,9.20
2018-12-30T19:33:03.453Z,8.40
2018-12-30T19:38:08.532Z,10.03
2018-12-30T19:43:13.292Z,9.40
2018-12-30T19:48:18.202Z,8.77
2018-12-30T19:53:22.977Z,8.60
2018-12-30T19:58:27.775Z,8.50
2018-12-30T20:03:32.715Z,10.00
2018-12-30T20:08:38.304Z,9.97
2018-12-30T20:13:43.731Z,9.37
2018-12-30T20:18:48.589Z,9.20
2018-12-30T20:23:53.497Z,8.90
2018-12-30T20:28:58.445Z,9.10
2018-12-30T20:34:03.227Z,7.70
2018-12-30T20:39:07.986Z,8.50
2018-12-30T20:44:12.696Z,8.60
2018-12-30T20:49:17.498Z,8.17
2018-12-30T20:54:22.223Z,8.53
2018-12-30T20:59:27.091Z,9.03
2018-12-30T21:04:31.891Z,8.97
2018-12-30T21:09:36.768Z,9.47
2018-12-30T21:14:41.980Z,8.30
2018-12-30T21:19:46.950Z,8.47
2018-12-30T21:24:52.185Z,11.50
2018-12-30T21:29:57.471Z,9.17
2018-12-30T21:35:02.427Z,10.30
2018-12-30T21:40:08.648Z,8.67
2018-12-30T21:45:13.573Z,8.90
2018-12-30T21:50:18.672Z,8.03
2018-12-30T21:55:23.527Z,8.63
2018-12-30T22:00:28.533Z,8.40
2018-12-30T22:05:33.269Z,8.50
2018-12-30T22:10:39.839Z,8.50
2018-12-30T22:15:44.890Z,8.03
2018-12-30T22:20:49.957Z,8.83
2018-12-30T22:25:54.986Z,9.17
2018-12-30T22:30:59.981Z,8.83
2018-12-30T22:36:05.062Z,8.03
2018-12-30T22:41:09.817Z,8.93
2018-12-30T22:46:14.784Z,9.77
2018-12-30T22:51:20.025Z,9.67
2018-12-30T22:56:24.787Z,8.37
2018-12-30T23:01:29.962Z,9.63
2018-12-30T23:06:36.071Z,10.07
2018-12-30T23:11:40.981Z,9.37
2018-12-30T23:16:45.996Z,8.73
2018-12-30T23:21:50.862Z,9.77
2018-12-30T23:26:55.720Z,9.73
2018-12-30T23:32:00.575Z,9.93
2018-12-30T23:37:06.730Z,8.27
2018-12-30T23:42:11.829Z,8.50
2018-12-30T23:47:16.677Z,9.27
2018-12-30T23:52:21.967Z,8.77
2018-12-30T23:57:26.838Z,7.87
